sensor_id;sensor_type;location;lat;lon;timestamp;temperature;humidity
15083;DHT22;7640;53.116;6.878;2023-02-28T00:01:43;5.70;99.90
15083;DHT22;7640;53.116;6.878;2023-02-28T00:04:11;5.70;99.90
15083;DHT22;7640;53.116;6.878;2023-02-28T00:06:39;5.80;99.90
15083;DHT22;7640;53.116;6.878;2023-02-28T00:09:10;5.80;99.90
15083;DHT22;7640;53.116;6.878;2023-02-28T00:11:38;5.70;99.90
15083;DHT22;7640;53.116;6.878;2023-02-28T00:14:06;5.80;99.90
15083;DHT22;7640;53.116;6.878;2023-02-28T00:16:35;5.80;99.90
15083;DHT22;7640;53.116;6.878;2023-02-28T00:19:03;5.80;99.90
15083;DHT22;7640;53.116;6.878;2023-02-28T00:21:32;5.70;99.90
15083;DHT22;7640;53.116;6.878;2023-02-28T00:24:01;5.70;99.90
15083;DHT22;7640;53.116;6.878;2023-02-28T00:26:30;5.70;99.90
15083;DHT22;7640;53.116;6.878;2023-02-28T00:28:59;5.70;99.90
15083;DHT22;7640;53.116;6.878;2023-02-28T00:31:27;5.80;99.90
15083;DHT22;7640;53.116;6.878;2023-02-28T00:33:56;5.70;99.90
15083;DHT22;7640;53.116;6.878;2023-02-28T00:36:25;5.70;99.90
15083;DHT22;7640;53.116;6.878;2023-02-28T00:38:53;5.70;99.90
15083;DHT22;7640;53.116;6.878;2023-02-28T00:41:22;5.70;99.90
15083;DHT22;7640;53.116;6.878;2023-02-28T00:43:52;5.60;99.90
15083;DHT22;7640;53.116;6.878;2023-02-28T00:46:20;5.60;99.90
15083;DHT22;7640;53.116;6.878;2023-02-28T00:48:49;5.60;99.90
15083;DHT22;7640;53.116;6.878;2023-02-28T00:51:17;5.60;99.90
15083;DHT22;7640;53.116;6.878;2023-02-28T00:53:46;5.60;99.90
15083;DHT22;7640;53.116;6.878;2023-02-28T00:56:14;5.60;99.90
15083;DHT22;7640;53.116;6.878;2023-02-28T00:58:43;5.50;99.90
15083;DHT22;7640;53.116;6.878;2023-02-28T01:01:13;5.50;99.90
15083;DHT22;7640;53.116;6.878;2023-02-28T01:03:41;5.50;99.90
15083;DHT22;7640;53.116;6.878;2023-02-28T01:06:10;5.50;99.90
15083;DHT22;7640;53.116;6.878;2023-02-28T01:08:38;5.50;99.90
15083;DHT22;7640;53.116;6.878;2023-02-28T01:11:08;5.50;99.90
15083;DHT22;7640;53.116;6.878;2023-02-28T01:13:37;5.50;99.90
15083;DHT22;7640;53.116;6.878;2023-02-28T01:16:06;5.50;99.90
15083;DHT22;7640;53.116;6.878;2023-02-28T01:18:37;5.50;99.90
15083;DHT22;7640;53.116;6.878;2023-02-28T01:21:06;5.50;99.90
15083;DHT22;7640;53.116;6.878;2023-02-28T01:23:35;5.50;99.90
15083;DHT22;7640;53.116;6.878;2023-02-28T01:26:05;5.60;99.90
15083;DHT22;7640;53.116;6.878;2023-02-28T01:28:33;5.50;99.90
15083;DHT22;7640;53.116;6.878;2023-02-28T01:31:02;5.60;99.90
15083;DHT22;7640;53.116;6.878;2023-02-28T01:33:31;5.60;99.90
15083;DHT22;7640;53.116;6.878;2023-02-28T01:36:02;5.60;99.90
15083;DHT22;7640;53.116;6.878;2023-02-28T01:38:33;5.60;99.90
15083;DHT22;7640;53.116;6.878;2023-02-28T01:41:02;5.70;99.90
15083;DHT22;7640;53.116;6.878;2023-02-28T01:43:32;5.60;99.90
15083;DHT22;7640;53.116;6.878;2023-02-28T01:46:21;5.60;99.90
15083;DHT22;7640;53.116;6.878;2023-02-28T01:48:51;5.60;99.90
15083;DHT22;7640;53.116;6.878;2023-02-28T01:51:28;5.60;99.90
15083;DHT22;7640;53.116;6.878;2023-02-28T01:54:01;5.60;99.90
15083;DHT22;7640;53.116;6.878;2023-02-28T01:56:34;5.60;99.90
15083;DHT22;7640;53.116;6.878;2023-02-28T01:59:04;5.60;99.90
15083;DHT22;7640;53.116;6.878;2023-02-28T02:01:33;5.70;99.90
15083;DHT22;7640;53.116;6.878;2023-02-28T02:04:02;5.70;99.90
15083;DHT22;7640;53.116;6.878;2023-02-28T02:06:37;5.60;99.90
15083;DHT22;7640;53.116;6.878;2023-02-28T02:09:07;5.60;99.90
15083;DHT22;7640;53.116;6.878;2023-02-28T02:11:36;5.70;99.90
15083;DHT22;7640;53.116;6.878;2023-02-28T02:14:31;5.70;99.90
15083;DHT22;7640;53.116;6.878;2023-02-28T02:17:16;5.60;99.90
15083;DHT22;7640;53.116;6.878;2023-02-28T02:26:40;5.50;99.90
15083;DHT22;7640;53.116;6.878;2023-02-28T02:29:39;5.50;99.90
15083;DHT22;7640;53.116;6.878;2023-02-28T02:35:30;5.50;99.90
15083;DHT22;7640;53.116;6.878;2023-02-28T02:38:06;5.50;99.90
15083;DHT22;7640;53.116;6.878;2023-02-28T02:40:42;5.50;99.90
15083;DHT22;7640;53.116;6.878;2023-02-28T02:43:17;5.40;99.90
15083;DHT22;7640;53.116;6.878;2023-02-28T02:45:51;5.40;99.90
15083;DHT22;7640;53.116;6.878;2023-02-28T02:48:26;5.40;99.90
15083;DHT22;7640;53.116;6.878;2023-02-28T02:51:00;5.40;99.90
15083;DHT22;7640;53.116;6.878;2023-02-28T02:53:33;5.40;99.90
15083;DHT22;7640;53.116;6.878;2023-02-28T02:56:04;5.30;99.90
15083;DHT22;7640;53.116;6.878;2023-02-28T02:58:38;5.30;99.90
15083;DHT22;7640;53.116;6.878;2023-02-28T03:01:14;5.30;99.90
15083;DHT22;7640;53.116;6.878;2023-02-28T03:03:45;5.30;99.90
15083;DHT22;7640;53.116;6.878;2023-02-28T03:06:15;5.30;99.90
15083;DHT22;7640;53.116;6.878;2023-02-28T03:08:43;5.20;99.90
15083;DHT22;7640;53.116;6.878;2023-02-28T03:11:13;5.20;99.90
15083;DHT22;7640;53.116;6.878;2023-02-28T03:13:51;5.30;99.90
15083;DHT22;7640;53.116;6.878;2023-02-28T03:16:32;5.20;99.90
15083;DHT22;7640;53.116;6.878;2023-02-28T03:19:22;5.20;99.90
15083;DHT22;7640;53.116;6.878;2023-02-28T03:22:11;5.20;99.90
15083;DHT22;7640;53.116;6.878;2023-02-28T03:24:50;5.20;99.90
15083;DHT22;7640;53.116;6.878;2023-02-28T03:27:26;5.20;99.90
15083;DHT22;7640;53.116;6.878;2023-02-28T03:30:02;5.20;99.90
15083;DHT22;7640;53.116;6.878;2023-02-28T03:32:36;5.20;99.90
15083;DHT22;7640;53.116;6.878;2023-02-28T03:35:10;5.10;99.90
15083;DHT22;7640;53.116;6.878;2023-02-28T03:37:53;5.10;99.90
15083;DHT22;7640;53.116;6.878;2023-02-28T03:40:30;5.10;99.90
15083;DHT22;7640;53.116;6.878;2023-02-28T03:43:04;5.10;99.90
15083;DHT22;7640;53.116;6.878;2023-02-28T03:45:38;5.00;99.90
15083;DHT22;7640;53.116;6.878;2023-02-28T03:48:11;5.00;99.90
15083;DHT22;7640;53.116;6.878;2023-02-28T03:50:44;5.00;99.90
15083;DHT22;7640;53.116;6.878;2023-02-28T03:53:21;5.10;99.90
15083;DHT22;7640;53.116;6.878;2023-02-28T03:55:53;5.10;99.90
15083;DHT22;7640;53.116;6.878;2023-02-28T03:58:29;5.00;99.90
15083;DHT22;7640;53.116;6.878;2023-02-28T04:01:03;5.00;99.90
15083;DHT22;7640;53.116;6.878;2023-02-28T04:03:35;5.00;99.90
15083;DHT22;7640;53.116;6.878;2023-02-28T04:06:06;5.00;99.90
15083;DHT22;7640;53.116;6.878;2023-02-28T04:08:37;5.00;99.90
15083;DHT22;7640;53.116;6.878;2023-02-28T04:11:12;5.00;99.90
15083;DHT22;7640;53.116;6.878;2023-02-28T04:13:46;5.00;99.90
15083;DHT22;7640;53.116;6.878;2023-02-28T04:16:15;5.00;99.90
15083;DHT22;7640;53.116;6.878;2023-02-28T04:19:01;5.00;99.90
15083;DHT22;7640;53.116;6.878;2023-02-28T04:21:33;4.90;99.90
15083;DHT22;7640;53.116;6.878;2023-02-28T04:24:05;4.90;99.90
15083;DHT22;7640;53.116;6.878;2023-02-28T04:26:36;4.90;99.90
15083;DHT22;7640;53.116;6.878;2023-02-28T04:29:05;4.90;99.90
15083;DHT22;7640;53.116;6.878;2023-02-28T04:31:34;4.80;99.90
15083;DHT22;7640;53.116;6.878;2023-02-28T04:34:02;4.80;99.90
15083;DHT22;7640;53.116;6.878;2023-02-28T04:36:31;4.90;99.90
15083;DHT22;7640;53.116;6.878;2023-02-28T04:38:59;4.80;99.90
15083;DHT22;7640;53.116;6.878;2023-02-28T04:41:29;4.90;99.90
15083;DHT22;7640;53.116;6.878;2023-02-28T04:43:59;4.90;99.90
15083;DHT22;7640;53.116;6.878;2023-02-28T04:46:27;4.90;99.90
15083;DHT22;7640;53.116;6.878;2023-02-28T04:48:57;4.90;99.90
15083;DHT22;7640;53.116;6.878;2023-02-28T04:51:26;4.90;99.90
15083;DHT22;7640;53.116;6.878;2023-02-28T04:53:56;4.90;99.90
15083;DHT22;7640;53.116;6.878;2023-02-28T04:56:24;4.90;99.90
15083;DHT22;7640;53.116;6.878;2023-02-28T04:58:54;4.80;99.90
15083;DHT22;7640;53.116;6.878;2023-02-28T05:01:25;4.80;99.90
15083;DHT22;7640;53.116;6.878;2023-02-28T05:03:56;4.80;99.90
15083;DHT22;7640;53.116;6.878;2023-02-28T05:06:28;4.80;99.90
15083;DHT22;7640;53.116;6.878;2023-02-28T05:08:58;4.80;99.90
15083;DHT22;7640;53.116;6.878;2023-02-28T05:11:29;4.70;99.90
15083;DHT22;7640;53.116;6.878;2023-02-28T05:14:04;4.70;99.90
15083;DHT22;7640;53.116;6.878;2023-02-28T05:16:34;4.60;99.90
15083;DHT22;7640;53.116;6.878;2023-02-28T05:19:02;4.60;99.90
15083;DHT22;7640;53.116;6.878;2023-02-28T05:21:33;4.60;99.90
15083;DHT22;7640;53.116;6.878;2023-02-28T05:24:05;4.60;99.90
15083;DHT22;7640;53.116;6.878;2023-02-28T05:26:35;4.60;99.90
15083;DHT22;7640;53.116;6.878;2023-02-28T05:29:06;4.60;99.90
15083;DHT22;7640;53.116;6.878;2023-02-28T05:31:35;4.50;99.90
15083;DHT22;7640;53.116;6.878;2023-02-28T05:34:03;4.50;99.90
15083;DHT22;7640;53.116;6.878;2023-02-28T05:36:32;4.50;99.90
15083;DHT22;7640;53.116;6.878;2023-02-28T05:39:01;4.50;99.90
15083;DHT22;7640;53.116;6.878;2023-02-28T05:41:30;4.40;99.90
15083;DHT22;7640;53.116;6.878;2023-02-28T05:43:58;4.40;99.90
15083;DHT22;7640;53.116;6.878;2023-02-28T05:46:28;4.30;99.90
15083;DHT22;7640;53.116;6.878;2023-02-28T05:48:57;4.40;99.90
15083;DHT22;7640;53.116;6.878;2023-02-28T05:51:27;4.40;99.90
15083;DHT22;7640;53.116;6.878;2023-02-28T05:53:59;4.30;99.90
15083;DHT22;7640;53.116;6.878;2023-02-28T05:56:28;4.30;99.90
15083;DHT22;7640;53.116;6.878;2023-02-28T05:58:57;4.30;99.90
15083;DHT22;7640;53.116;6.878;2023-02-28T06:01:34;4.30;99.90
15083;DHT22;7640;53.116;6.878;2023-02-28T06:04:05;4.30;99.90
15083;DHT22;7640;53.116;6.878;2023-02-28T06:06:38;4.30;99.90
15083;DHT22;7640;53.116;6.878;2023-02-28T06:09:06;4.30;99.90
15083;DHT22;7640;53.116;6.878;2023-02-28T06:11:35;4.30;99.90
15083;DHT22;7640;53.116;6.878;2023-02-28T06:14:06;4.30;99.90
15083;DHT22;7640;53.116;6.878;2023-02-28T06:16:36;4.30;99.90
15083;DHT22;7640;53.116;6.878;2023-02-28T06:19:05;4.30;99.90
15083;DHT22;7640;53.116;6.878;2023-02-28T06:21:33;4.20;99.90
15083;DHT22;7640;53.116;6.878;2023-02-28T06:24:03;4.20;99.90
15083;DHT22;7640;53.116;6.878;2023-02-28T06:26:32;4.20;99.90
15083;DHT22;7640;53.116;6.878;2023-02-28T06:29:00;4.20;99.90
15083;DHT22;7640;53.116;6.878;2023-02-28T06:31:29;4.20;99.90
15083;DHT22;7640;53.116;6.878;2023-02-28T06:34:00;4.20;99.90
15083;DHT22;7640;53.116;6.878;2023-02-28T06:36:28;4.20;99.90
15083;DHT22;7640;53.116;6.878;2023-02-28T06:38:57;4.20;99.90
15083;DHT22;7640;53.116;6.878;2023-02-28T06:41:26;4.20;99.90
15083;DHT22;7640;53.116;6.878;2023-02-28T06:43:57;4.30;99.90
15083;DHT22;7640;53.116;6.878;2023-02-28T06:46:25;4.30;99.90
15083;DHT22;7640;53.116;6.878;2023-02-28T06:48:54;4.30;99.90
15083;DHT22;7640;53.116;6.878;2023-02-28T06:51:24;4.20;99.90
15083;DHT22;7640;53.116;6.878;2023-02-28T06:53:54;4.30;99.90
15083;DHT22;7640;53.116;6.878;2023-02-28T06:56:22;4.30;99.90
15083;DHT22;7640;53.116;6.878;2023-02-28T06:58:51;4.30;99.90
15083;DHT22;7640;53.116;6.878;2023-02-28T07:01:20;4.30;99.90
15083;DHT22;7640;53.116;6.878;2023-02-28T07:03:51;4.30;99.90
15083;DHT22;7640;53.116;6.878;2023-02-28T07:06:20;4.30;99.90
15083;DHT22;7640;53.116;6.878;2023-02-28T07:08:52;4.30;99.90
15083;DHT22;7640;53.116;6.878;2023-02-28T07:11:21;4.30;99.90
15083;DHT22;7640;53.116;6.878;2023-02-28T07:13:52;4.30;99.90
15083;DHT22;7640;53.116;6.878;2023-02-28T07:16:21;4.40;99.90
15083;DHT22;7640;53.116;6.878;2023-02-28T07:18:53;4.40;99.90
15083;DHT22;7640;53.116;6.878;2023-02-28T07:21:22;4.40;99.90
15083;DHT22;7640;53.116;6.878;2023-02-28T07:23:52;4.40;99.90
15083;DHT22;7640;53.116;6.878;2023-02-28T07:26:21;4.40;99.90
15083;DHT22;7640;53.116;6.878;2023-02-28T07:28:50;4.50;99.90
15083;DHT22;7640;53.116;6.878;2023-02-28T07:31:19;4.50;99.90
15083;DHT22;7640;53.116;6.878;2023-02-28T07:33:48;4.50;99.90
15083;DHT22;7640;53.116;6.878;2023-02-28T07:36:17;4.50;99.90
15083;DHT22;7640;53.116;6.878;2023-02-28T07:38:47;4.50;99.90
15083;DHT22;7640;53.116;6.878;2023-02-28T07:41:20;4.50;99.90
15083;DHT22;7640;53.116;6.878;2023-02-28T07:43:53;4.50;99.90
15083;DHT22;7640;53.116;6.878;2023-02-28T07:46:22;4.60;99.90
15083;DHT22;7640;53.116;6.878;2023-02-28T07:48:51;4.60;99.90
15083;DHT22;7640;53.116;6.878;2023-02-28T07:51:22;4.60;99.90
15083;DHT22;7640;53.116;6.878;2023-02-28T07:53:50;4.70;99.90
15083;DHT22;7640;53.116;6.878;2023-02-28T07:56:20;4.80;99.90
15083;DHT22;7640;53.116;6.878;2023-02-28T07:58:49;4.90;99.90
15083;DHT22;7640;53.116;6.878;2023-02-28T08:01:19;5.00;99.90
15083;DHT22;7640;53.116;6.878;2023-02-28T08:03:48;5.00;99.90
15083;DHT22;7640;53.116;6.878;2023-02-28T08:06:20;5.10;99.90
15083;DHT22;7640;53.116;6.878;2023-02-28T08:08:49;5.10;99.90
15083;DHT22;7640;53.116;6.878;2023-02-28T08:11:20;5.20;99.90
15083;DHT22;7640;53.116;6.878;2023-02-28T08:13:48;5.30;99.90
15083;DHT22;7640;53.116;6.878;2023-02-28T08:16:16;5.20;99.90
15083;DHT22;7640;53.116;6.878;2023-02-28T08:18:49;5.20;99.90
15083;DHT22;7640;53.116;6.878;2023-02-28T08:21:18;5.30;99.90
15083;DHT22;7640;53.116;6.878;2023-02-28T08:23:47;5.30;99.90
15083;DHT22;7640;53.116;6.878;2023-02-28T08:26:16;5.40;99.90
15083;DHT22;7640;53.116;6.878;2023-02-28T08:28:46;5.40;99.90
15083;DHT22;7640;53.116;6.878;2023-02-28T08:31:16;5.40;99.90
15083;DHT22;7640;53.116;6.878;2023-02-28T08:33:46;5.50;99.90
15083;DHT22;7640;53.116;6.878;2023-02-28T08:36:17;5.50;99.90
15083;DHT22;7640;53.116;6.878;2023-02-28T08:38:46;5.40;99.90
15083;DHT22;7640;53.116;6.878;2023-02-28T08:41:15;5.30;99.90
15083;DHT22;7640;53.116;6.878;2023-02-28T08:43:43;5.30;99.90
15083;DHT22;7640;53.116;6.878;2023-02-28T08:46:13;5.30;99.90
15083;DHT22;7640;53.116;6.878;2023-02-28T08:48:42;5.30;99.90
15083;DHT22;7640;53.116;6.878;2023-02-28T08:51:12;5.30;99.90
15083;DHT22;7640;53.116;6.878;2023-02-28T08:53:43;5.30;99.90
15083;DHT22;7640;53.116;6.878;2023-02-28T08:56:13;5.30;99.90
15083;DHT22;7640;53.116;6.878;2023-02-28T08:58:44;5.30;99.90
15083;DHT22;7640;53.116;6.878;2023-02-28T09:01:16;5.30;99.90
15083;DHT22;7640;53.116;6.878;2023-02-28T09:03:47;5.30;99.90
15083;DHT22;7640;53.116;6.878;2023-02-28T09:06:18;5.40;99.90
15083;DHT22;7640;53.116;6.878;2023-02-28T09:08:47;5.40;99.90
15083;DHT22;7640;53.116;6.878;2023-02-28T09:11:16;5.40;99.90
15083;DHT22;7640;53.116;6.878;2023-02-28T09:13:46;5.40;99.90
15083;DHT22;7640;53.116;6.878;2023-02-28T09:16:16;5.40;99.90
15083;DHT22;7640;53.116;6.878;2023-02-28T09:18:45;5.40;99.90
15083;DHT22;7640;53.116;6.878;2023-02-28T09:21:15;5.40;99.90
15083;DHT22;7640;53.116;6.878;2023-02-28T09:23:46;5.40;99.90
15083;DHT22;7640;53.116;6.878;2023-02-28T09:26:16;5.40;99.90
15083;DHT22;7640;53.116;6.878;2023-02-28T09:28:46;5.40;99.90
15083;DHT22;7640;53.116;6.878;2023-02-28T09:31:17;5.40;99.90
15083;DHT22;7640;53.116;6.878;2023-02-28T09:33:49;5.50;99.90
15083;DHT22;7640;53.116;6.878;2023-02-28T09:36:18;5.50;99.90
15083;DHT22;7640;53.116;6.878;2023-02-28T09:38:49;5.50;99.90
15083;DHT22;7640;53.116;6.878;2023-02-28T09:41:21;5.50;99.90
15083;DHT22;7640;53.116;6.878;2023-02-28T09:43:54;5.60;99.90
15083;DHT22;7640;53.116;6.878;2023-02-28T09:46:31;5.60;99.90
15083;DHT22;7640;53.116;6.878;2023-02-28T09:49:04;5.70;99.90
15083;DHT22;7640;53.116;6.878;2023-02-28T09:51:43;5.70;99.90
15083;DHT22;7640;53.116;6.878;2023-02-28T09:54:19;5.80;99.90
15083;DHT22;7640;53.116;6.878;2023-02-28T09:56:53;5.90;99.90
15083;DHT22;7640;53.116;6.878;2023-02-28T09:59:36;5.90;99.90
15083;DHT22;7640;53.116;6.878;2023-02-28T10:02:44;6.00;99.90
15083;DHT22;7640;53.116;6.878;2023-02-28T10:05:19;6.00;99.90
15083;DHT22;7640;53.116;6.878;2023-02-28T10:07:58;6.00;99.90
15083;DHT22;7640;53.116;6.878;2023-02-28T10:10:37;6.20;99.90
15083;DHT22;7640;53.116;6.878;2023-02-28T10:13:15;6.20;99.90
15083;DHT22;7640;53.116;6.878;2023-02-28T10:15:51;6.30;99.90
15083;DHT22;7640;53.116;6.878;2023-02-28T10:18:24;6.40;99.90
15083;DHT22;7640;53.116;6.878;2023-02-28T10:20:56;6.60;99.90
15083;DHT22;7640;53.116;6.878;2023-02-28T10:23:27;6.80;99.90
15083;DHT22;7640;53.116;6.878;2023-02-28T10:26:00;7.00;99.90
15083;DHT22;7640;53.116;6.878;2023-02-28T10:28:29;7.20;99.90
15083;DHT22;7640;53.116;6.878;2023-02-28T10:30:59;7.20;99.90
15083;DHT22;7640;53.116;6.878;2023-02-28T10:33:31;7.30;99.90
15083;DHT22;7640;53.116;6.878;2023-02-28T10:36:03;7.30;99.90
15083;DHT22;7640;53.116;6.878;2023-02-28T10:38:35;7.30;99.90
15083;DHT22;7640;53.116;6.878;2023-02-28T10:41:06;7.30;99.90
15083;DHT22;7640;53.116;6.878;2023-02-28T10:43:37;7.30;99.90
15083;DHT22;7640;53.116;6.878;2023-02-28T10:46:12;7.30;99.90
15083;DHT22;7640;53.116;6.878;2023-02-28T10:49:03;7.40;99.90
15083;DHT22;7640;53.116;6.878;2023-02-28T10:51:36;7.50;99.90
15083;DHT22;7640;53.116;6.878;2023-02-28T10:54:05;7.70;99.90
15083;DHT22;7640;53.116;6.878;2023-02-28T10:56:34;7.80;99.90
15083;DHT22;7640;53.116;6.878;2023-02-28T10:59:19;8.00;99.90
15083;DHT22;7640;53.116;6.878;2023-02-28T11:01:53;8.20;99.90
15083;DHT22;7640;53.116;6.878;2023-02-28T11:04:35;8.30;99.90
15083;DHT22;7640;53.116;6.878;2023-02-28T11:07:17;8.50;99.90
15083;DHT22;7640;53.116;6.878;2023-02-28T11:09:51;8.50;99.90
15083;DHT22;7640;53.116;6.878;2023-02-28T11:12:23;8.50;99.90
15083;DHT22;7640;53.116;6.878;2023-02-28T11:14:58;8.50;99.90
15083;DHT22;7640;53.116;6.878;2023-02-28T11:17:29;8.50;99.90
15083;DHT22;7640;53.116;6.878;2023-02-28T11:20:03;8.50;99.90
15083;DHT22;7640;53.116;6.878;2023-02-28T11:22:37;8.50;99.90
15083;DHT22;7640;53.116;6.878;2023-02-28T11:25:12;8.50;99.90
15083;DHT22;7640;53.116;6.878;2023-02-28T11:27:48;8.60;99.90
15083;DHT22;7640;53.116;6.878;2023-02-28T11:30:32;8.60;99.90
15083;DHT22;7640;53.116;6.878;2023-02-28T11:33:20;8.50;99.90
15083;DHT22;7640;53.116;6.878;2023-02-28T11:35:53;8.50;99.90
15083;DHT22;7640;53.116;6.878;2023-02-28T11:38:27;8.50;99.90
15083;DHT22;7640;53.116;6.878;2023-02-28T11:41:08;8.40;99.90
15083;DHT22;7640;53.116;6.878;2023-02-28T11:44:01;8.50;99.90
15083;DHT22;7640;53.116;6.878;2023-02-28T11:46:41;8.40;99.90
15083;DHT22;7640;53.116;6.878;2023-02-28T11:49:30;8.40;99.90
15083;DHT22;7640;53.116;6.878;2023-02-28T11:52:10;8.30;99.90
15083;DHT22;7640;53.116;6.878;2023-02-28T11:54:59;8.30;99.90
15083;DHT22;7640;53.116;6.878;2023-02-28T11:58:05;8.30;99.90
15083;DHT22;7640;53.116;6.878;2023-02-28T12:01:08;8.30;99.90
15083;DHT22;7640;53.116;6.878;2023-02-28T12:03:47;8.10;99.90
15083;DHT22;7640;53.116;6.878;2023-02-28T12:06:28;8.00;99.90
15083;DHT22;7640;53.116;6.878;2023-02-28T12:09:12;7.90;99.90
15083;DHT22;7640;53.116;6.878;2023-02-28T12:11:52;7.90;99.90
15083;DHT22;7640;53.116;6.878;2023-02-28T12:14:50;7.90;99.90
15083;DHT22;7640;53.116;6.878;2023-02-28T12:17:40;8.00;99.90
15083;DHT22;7640;53.116;6.878;2023-02-28T12:20:24;8.10;99.90
15083;DHT22;7640;53.116;6.878;2023-02-28T12:23:10;8.30;99.90
15083;DHT22;7640;53.116;6.878;2023-02-28T12:25:59;8.40;99.90
15083;DHT22;7640;53.116;6.878;2023-02-28T12:28:34;8.60;99.90
15083;DHT22;7640;53.116;6.878;2023-02-28T12:31:08;8.70;99.90
15083;DHT22;7640;53.116;6.878;2023-02-28T12:33:42;8.90;99.90
15083;DHT22;7640;53.116;6.878;2023-02-28T12:36:16;9.10;99.90
15083;DHT22;7640;53.116;6.878;2023-02-28T12:38:51;9.30;99.90
15083;DHT22;7640;53.116;6.878;2023-02-28T12:41:29;9.50;99.90
15083;DHT22;7640;53.116;6.878;2023-02-28T12:44:07;9.70;99.90
15083;DHT22;7640;53.116;6.878;2023-02-28T12:46:41;9.90;99.90
15083;DHT22;7640;53.116;6.878;2023-02-28T12:49:14;10.10;99.90
15083;DHT22;7640;53.116;6.878;2023-02-28T12:51:45;10.20;99.90
15083;DHT22;7640;53.116;6.878;2023-02-28T12:54:21;10.30;99.90
15083;DHT22;7640;53.116;6.878;2023-02-28T12:57:01;10.50;99.90
15083;DHT22;7640;53.116;6.878;2023-02-28T12:59:38;10.60;99.90
15083;DHT22;7640;53.116;6.878;2023-02-28T13:02:45;10.70;99.90
15083;DHT22;7640;53.116;6.878;2023-02-28T13:08:41;10.90;99.90
15083;DHT22;7640;53.116;6.878;2023-02-28T13:11:41;11.30;99.90
15083;DHT22;7640;53.116;6.878;2023-02-28T13:14:26;11.80;99.90
15083;DHT22;7640;53.116;6.878;2023-02-28T13:17:03;12.40;99.90
15083;DHT22;7640;53.116;6.878;2023-02-28T13:19:41;12.80;99.90
15083;DHT22;7640;53.116;6.878;2023-02-28T13:22:19;13.30;99.90
15083;DHT22;7640;53.116;6.878;2023-02-28T13:24:50;13.70;99.90
15083;DHT22;7640;53.116;6.878;2023-02-28T13:27:37;14.10;99.90
15083;DHT22;7640;53.116;6.878;2023-02-28T13:33:34;14.50;99.90
15083;DHT22;7640;53.116;6.878;2023-02-28T13:36:26;14.60;99.90
15083;DHT22;7640;53.116;6.878;2023-02-28T13:38:57;14.80;99.90
15083;DHT22;7640;53.116;6.878;2023-02-28T13:41:44;15.10;99.90
15083;DHT22;7640;53.116;6.878;2023-02-28T13:44:15;15.40;99.90
15083;DHT22;7640;53.116;6.878;2023-02-28T13:47:21;15.80;99.90
15083;DHT22;7640;53.116;6.878;2023-02-28T13:49:52;16.10;99.90
15083;DHT22;7640;53.116;6.878;2023-02-28T13:52:23;16.40;99.90
15083;DHT22;7640;53.116;6.878;2023-02-28T13:55:17;16.60;99.90
15083;DHT22;7640;53.116;6.878;2023-02-28T13:58:03;16.60;99.90
15083;DHT22;7640;53.116;6.878;2023-02-28T14:01:02;16.50;99.90
15083;DHT22;7640;53.116;6.878;2023-02-28T14:03:57;16.50;99.90
15083;DHT22;7640;53.116;6.878;2023-02-28T14:06:48;15.90;99.90
15083;DHT22;7640;53.116;6.878;2023-02-28T14:09:23;15.20;99.90
15083;DHT22;7640;53.116;6.878;2023-02-28T14:11:53;14.60;99.90
15083;DHT22;7640;53.116;6.878;2023-02-28T14:14:54;14.10;99.90
15083;DHT22;7640;53.116;6.878;2023-02-28T14:17:25;13.60;99.90
15083;DHT22;7640;53.116;6.878;2023-02-28T14:19:57;13.10;99.90
15083;DHT22;7640;53.116;6.878;2023-02-28T14:22:45;12.80;99.90
15083;DHT22;7640;53.116;6.878;2023-02-28T14:25:26;12.50;99.90
15083;DHT22;7640;53.116;6.878;2023-02-28T14:28:08;12.30;99.90
15083;DHT22;7640;53.116;6.878;2023-02-28T14:30:57;12.10;99.90
15083;DHT22;7640;53.116;6.878;2023-02-28T14:33:42;11.80;99.90
15083;DHT22;7640;53.116;6.878;2023-02-28T14:36:26;11.50;99.90
15083;DHT22;7640;53.116;6.878;2023-02-28T14:38:57;11.30;99.90
15083;DHT22;7640;53.116;6.878;2023-02-28T14:41:30;11.00;99.90
15083;DHT22;7640;53.116;6.878;2023-02-28T14:44:03;10.80;99.90
15083;DHT22;7640;53.116;6.878;2023-02-28T14:46:42;10.70;99.90
15083;DHT22;7640;53.116;6.878;2023-02-28T14:49:17;10.50;99.90
15083;DHT22;7640;53.116;6.878;2023-02-28T14:51:50;10.40;99.90
15083;DHT22;7640;53.116;6.878;2023-02-28T14:54:30;10.30;99.90
15083;DHT22;7640;53.116;6.878;2023-02-28T14:56:58;10.20;99.90
15083;DHT22;7640;53.116;6.878;2023-02-28T14:59:28;10.20;99.90
15083;DHT22;7640;53.116;6.878;2023-02-28T15:02:19;10.10;99.90
15083;DHT22;7640;53.116;6.878;2023-02-28T15:04:56;10.00;99.90
15083;DHT22;7640;53.116;6.878;2023-02-28T15:07:27;10.00;99.90
15083;DHT22;7640;53.116;6.878;2023-02-28T15:10:18;9.90;99.90
15083;DHT22;7640;53.116;6.878;2023-02-28T15:12:52;9.90;99.90
15083;DHT22;7640;53.116;6.878;2023-02-28T15:15:26;9.70;99.90
15083;DHT22;7640;53.116;6.878;2023-02-28T15:18:21;9.70;99.90
15083;DHT22;7640;53.116;6.878;2023-02-28T15:20:55;9.60;99.90
15083;DHT22;7640;53.116;6.878;2023-02-28T15:23:27;9.60;99.90
15083;DHT22;7640;53.116;6.878;2023-02-28T15:25:56;9.60;99.90
15083;DHT22;7640;53.116;6.878;2023-02-28T15:28:25;9.50;99.90
15083;DHT22;7640;53.116;6.878;2023-02-28T15:30:57;9.50;99.90
15083;DHT22;7640;53.116;6.878;2023-02-28T15:33:33;9.50;99.90
15083;DHT22;7640;53.116;6.878;2023-02-28T15:36:07;9.50;99.90
15083;DHT22;7640;53.116;6.878;2023-02-28T15:38:42;9.50;99.90
15083;DHT22;7640;53.116;6.878;2023-02-28T15:41:23;9.40;99.90
15083;DHT22;7640;53.116;6.878;2023-02-28T15:44:25;9.40;99.90
15083;DHT22;7640;53.116;6.878;2023-02-28T15:47:02;9.30;99.90
15083;DHT22;7640;53.116;6.878;2023-02-28T15:49:39;9.20;99.90
15083;DHT22;7640;53.116;6.878;2023-02-28T15:52:14;9.10;99.90
15083;DHT22;7640;53.116;6.878;2023-02-28T15:54:46;9.00;99.90
15083;DHT22;7640;53.116;6.878;2023-02-28T15:57:18;8.90;99.90
15083;DHT22;7640;53.116;6.878;2023-02-28T15:59:52;8.90;99.90
15083;DHT22;7640;53.116;6.878;2023-02-28T16:02:30;8.90;99.90
15083;DHT22;7640;53.116;6.878;2023-02-28T16:05:20;8.70;99.90
15083;DHT22;7640;53.116;6.878;2023-02-28T16:07:55;8.70;99.90
15083;DHT22;7640;53.116;6.878;2023-02-28T16:10:27;8.50;99.90
15083;DHT22;7640;53.116;6.878;2023-02-28T16:12:57;8.50;99.90
15083;DHT22;7640;53.116;6.878;2023-02-28T16:15:28;8.50;99.90
15083;DHT22;7640;53.116;6.878;2023-02-28T16:17:57;8.30;99.90
15083;DHT22;7640;53.116;6.878;2023-02-28T16:20:28;8.30;99.90
15083;DHT22;7640;53.116;6.878;2023-02-28T16:22:57;8.20;99.90
15083;DHT22;7640;53.116;6.878;2023-02-28T16:25:38;8.10;99.90
15083;DHT22;7640;53.116;6.878;2023-02-28T16:28:17;8.10;99.90
15083;DHT22;7640;53.116;6.878;2023-02-28T16:30:47;8.00;99.90
15083;DHT22;7640;53.116;6.878;2023-02-28T16:33:16;7.90;99.90
15083;DHT22;7640;53.116;6.878;2023-02-28T16:35:44;7.90;99.90
15083;DHT22;7640;53.116;6.878;2023-02-28T16:38:13;7.80;99.90
15083;DHT22;7640;53.116;6.878;2023-02-28T16:40:43;7.70;99.90
15083;DHT22;7640;53.116;6.878;2023-02-28T16:43:16;7.60;99.90
15083;DHT22;7640;53.116;6.878;2023-02-28T16:45:46;7.60;99.90
15083;DHT22;7640;53.116;6.878;2023-02-28T16:48:16;7.50;99.90
15083;DHT22;7640;53.116;6.878;2023-02-28T16:50:44;7.50;99.90
15083;DHT22;7640;53.116;6.878;2023-02-28T16:53:12;7.40;99.90
15083;DHT22;7640;53.116;6.878;2023-02-28T16:55:43;7.20;99.90
15083;DHT22;7640;53.116;6.878;2023-02-28T16:58:15;7.20;99.90
15083;DHT22;7640;53.116;6.878;2023-02-28T17:00:44;7.10;99.90